Weather Station Data

Station Data Captured at Five Minute Intervals Since Midnight Local Time


Date Time Temp. RH % Dew Pt. Wind Speed Wind Dir. Peak Wind Wind Chill Pressure Precip. Solar W/m2 ET
9/25/21 4:55a 56.1 79 49.7 2.0 SSW 6.0 56.1 30.007 0.00 0 0.000
9/25/21 4:50a 56.0 79 49.6 2.0 S 4.0 56.0 30.010 0.00 0 0.000
9/25/21 4:45a 56.0 79 49.6 2.0 SSE 6.0 56.0 30.012 0.00 0 0.000
9/25/21 4:40a 56.0 79 49.6 2.0 S 5.0 56.0 30.015 0.00 0 0.000
9/25/21 4:35a 56.0 79 49.6 3.0 S 6.0 56.0 30.017 0.00 0 0.000
9/25/21 4:30a 55.9 79 49.5 2.0 S 5.0 55.9 30.018 0.00 0 0.000
9/25/21 4:25a 56.0 79 49.6 1.0 S 5.0 56.0 30.015 0.00 0 0.000
9/25/21 4:20a 56.0 79 49.6 1.0 S 4.0 56.0 30.016 0.00 0 0.000
9/25/21 4:15a 56.1 79 49.7 2.0 S 6.0 56.1 30.019 0.00 0 0.000
9/25/21 4:10a 56.1 79 49.7 2.0 S 5.0 56.1 30.019 0.00 0 0.000
9/25/21 4:05a 56.1 79 49.7 1.0 S 6.0 56.1 30.019 0.00 0 0.000
9/25/21 4:00a 56.0 79 49.6 2.0 SSW 5.0 56.0 30.019 0.00 0 0.001
9/25/21 3:55a 56.0 79 49.6 3.0 S 6.0 56.0 30.020 0.00 0 0.000
9/25/21 3:50a 55.9 80 49.8 2.0 S 7.0 55.9 30.022 0.00 0 0.000
9/25/21 3:45a 55.8 80 49.7 2.0 S 6.0 55.8 30.024 0.00 0 0.000
9/25/21 3:40a 55.7 80 49.6 2.0 SE 5.0 55.7 30.026 0.00 0 0.000
9/25/21 3:35a 55.6 80 49.5 2.0 S 4.0 55.6 30.029 0.00 0 0.000
9/25/21 3:30a 55.6 80 49.5 1.0 S 4.0 55.6 30.029 0.00 0 0.000
9/25/21 3:25a 55.7 80 49.6 1.0 S 5.0 55.7 30.031 0.00 0 0.000
9/25/21 3:20a 55.7 80 49.6 1.0 S 3.0 55.7 30.035 0.00 0 0.000
9/25/21 3:15a 55.8 80 49.7 0.0 S 2.0 55.8 30.036 0.00 0 0.000
9/25/21 3:10a 55.9 80 49.8 0.0 S 2.0 55.9 30.037 0.00 0 0.000
9/25/21 3:05a 56.0 80 49.9 0.0 S 2.0 56.0 30.039 0.00 0 0.000
9/25/21 3:00a 56.1 80 50.0 0.0 S 1.0 56.1 30.039 0.00 0 0.001
9/25/21 2:55a 56.2 79 49.8 0.0 S 1.0 56.2 30.041 0.00 0 0.000
9/25/21 2:50a 56.4 80 50.3 1.0 S 3.0 56.4 30.043 0.00 0 0.000
9/25/21 2:45a 56.5 79 50.1 1.0 S 2.0 56.5 30.043 0.00 0 0.000
9/25/21 2:40a 56.6 79 50.2 1.0 S 3.0 56.6 30.042 0.00 0 0.000
9/25/21 2:35a 56.7 79 50.3 1.0 S 3.0 56.7 30.041 0.00 0 0.000
9/25/21 2:30a 56.8 79 50.4 1.0 S 4.0 56.8 30.041 0.00 0 0.000
9/25/21 2:25a 56.9 79 50.5 1.0 S 3.0 56.9 30.041 0.00 0 0.000
9/25/21 2:20a 57.0 79 50.5 1.0 S 3.0 57.0 30.042 0.00 0 0.000
9/25/21 2:15a 57.1 79 50.6 1.0 S 3.0 57.1 30.040 0.00 0 0.000
9/25/21 2:10a 57.2 79 50.7 2.0 S 3.0 57.2 30.039 0.00 0 0.000
9/25/21 2:05a 57.2 78 50.4 1.0 SSE 3.0 57.2 30.040 0.00 0 0.000
9/25/21 2:00a 57.3 78 50.5 1.0 SSE 3.0 57.3 30.041 0.00 0 0.001
9/25/21 1:55a 57.5 78 50.7 1.0 SSE 3.0 57.5 30.044 0.00 0 0.000
9/25/21 1:50a 57.5 78 50.7 1.0 SE 4.0 57.5 30.041 0.00 0 0.000
9/25/21 1:45a 57.6 78 50.8 2.0 S 5.0 57.6 30.040 0.00 0 0.000
9/25/21 1:40a 57.6 78 50.8 1.0 SSE 6.0 57.6 30.041 0.00 0 0.000
9/25/21 1:35a 57.7 78 50.9 1.0 SSW 4.0 57.7 30.038 0.00 0 0.000
9/25/21 1:30a 57.8 78 51.0 1.0 SSW 3.0 57.8 30.039 0.00 0 0.000
9/25/21 1:25a 57.8 77 50.6 1.0 SSW 4.0 57.8 30.036 0.00 0 0.000
9/25/21 1:20a 57.9 77 50.7 1.0 SSW 4.0 57.9 30.042 0.00 0 0.000
9/25/21 1:15a 58.0 77 50.8 1.0 SSW 5.0 58.0 30.040 0.00 0 0.000
9/25/21 1:10a 58.0 77 50.8 1.0 SSW 2.0 58.0 30.041 0.00 0 0.000
9/25/21 1:05a 58.0 77 50.8 2.0 SSW 4.0 58.0 30.043 0.00 0 0.000
9/25/21 1:00a 58.0 77 50.8 1.0 SSW 4.0 58.0 30.043 0.00 0 0.001
9/25/21 12:55a 57.9 78 51.1 1.0 S 3.0 57.9 30.045 0.00 0 0.000
9/25/21 12:50a 57.8 78 51.0 1.0 S 3.0 57.8 30.045 0.00 0 0.000
9/25/21 12:45a 57.7 78 50.9 1.0 S 3.0 57.7 30.044 0.00 0 0.000
9/25/21 12:40a 57.7 78 50.9 1.0 S 4.0 57.7 30.044 0.00 0 0.000
9/25/21 12:35a 57.8 78 51.0 1.0 S 2.0 57.8 30.047 0.00 0 0.000
9/25/21 12:30a 57.9 78 51.1 1.0 S 3.0 57.9 30.050 0.00 0 0.000
9/25/21 12:25a 57.9 78 51.1 1.0 S 3.0 57.9 30.053 0.00 0 0.000
9/25/21 12:20a 57.8 78 51.0 1.0 S 3.0 57.8 30.054 0.00 0 0.000
9/25/21 12:15a 57.9 78 51.1 0.0 S 2.0 57.9 30.056 0.00 0 0.000
9/25/21 12:10a 58.0 78 51.2 0.0 S 2.0 58.0 30.057 0.00 0 0.000
9/25/21 12:05a 58.1 77 50.9 0.0 S 2.0 58.1 30.057 0.00 0 0.000
9/25/21 12:00a 58.2 77 51.0 1.0 S 2.0 58.2 30.059 0.00 0 0.001

14,436 Page Views